createdAt,value
2022-11-16T00:01:30.650Z,97888.58
2022-11-16T00:04:04.541Z,97883.77
2022-11-16T00:06:36.313Z,97892.38
2022-11-16T00:09:23.520Z,97888.46
2022-11-16T00:11:57.416Z,97883.92
2022-11-16T00:14:31.364Z,97878.89
2022-11-16T00:17:04.065Z,97873.58
2022-11-16T00:19:35.878Z,97869.82
2022-11-16T00:22:07.533Z,97869.45
2022-11-16T00:24:39.145Z,97870.91
2022-11-16T00:27:10.687Z,97879.44
2022-11-16T00:29:42.295Z,97879.41
2022-11-16T00:32:13.939Z,97874.05
2022-11-16T00:34:45.517Z,97874.56
2022-11-16T00:37:17.046Z,97874.27
2022-11-16T00:39:48.603Z,97879.28
2022-11-16T00:42:20.183Z,97882.12
2022-11-16T00:44:51.707Z,97883.30
2022-11-16T00:47:23.483Z,97885.30
2022-11-16T00:49:55.048Z,97883.01
2022-11-16T00:52:26.705Z,97880.90
2022-11-16T00:54:58.241Z,97879.09
2022-11-16T00:57:30.010Z,97877.43
2022-11-16T01:00:01.598Z,97873.39
2022-11-16T01:02:33.368Z,97874.25
2022-11-16T01:05:05.337Z,97868.15
2022-11-16T01:07:39.660Z,97865.52
2022-11-16T01:10:16.511Z,97869.88
2022-11-16T01:12:49.661Z,97864.27
2022-11-16T01:15:23.475Z,97853.70
2022-11-16T01:17:56.313Z,97842.64
2022-11-16T01:20:30.429Z,97839.14
2022-11-16T01:23:02.141Z,97835.18
2022-11-16T01:25:33.905Z,97829.54
2022-11-16T01:28:05.681Z,97825.66
2022-11-16T01:30:37.338Z,97822.47
2022-11-16T01:33:08.881Z,97823.24
2022-11-16T01:35:43.748Z,97825.39
2022-11-16T01:38:15.478Z,97823.88
2022-11-16T01:40:47.244Z,97819.31
2022-11-16T01:43:21.522Z,97811.13
2022-11-16T01:45:53.449Z,97812.66
2022-11-16T01:48:30.437Z,97811.23
2022-11-16T01:51:02.668Z,97802.14
2022-11-16T01:53:34.733Z,97798.72
2022-11-16T01:56:08.373Z,97798.19
2022-11-16T01:58:40.200Z,97791.89
2022-11-16T02:01:11.776Z,97789.61
2022-11-16T02:03:44.026Z,97785.77
2022-11-16T02:06:47.998Z,97786.98
2022-11-16T02:09:57.402Z,97787.19
2022-11-16T02:12:46.633Z,97788.27
2022-11-16T02:15:26.396Z,97791.10
2022-11-16T02:18:12.886Z,97792.95
2022-11-16T02:20:55.908Z,97787.73
2022-11-16T02:23:50.727Z,97787.48
2022-11-16T02:26:40.508Z,97784.66
2022-11-16T02:29:22.554Z,97777.56
2022-11-16T02:32:01.523Z,97774.30
2022-11-16T02:34:39.231Z,97766.84
2022-11-16T02:37:15.977Z,97760.96
2022-11-16T02:39:50.842Z,97765.76
2022-11-16T02:42:29.850Z,97763.02
2022-11-16T02:45:04.181Z,97761.20
2022-11-16T02:47:38.193Z,97760.48
2022-11-16T02:50:15.722Z,97751.25
2022-11-16T02:52:47.549Z,97756.83
2022-11-16T02:55:19.384Z,97759.73
2022-11-16T02:57:56.703Z,97759.73
2022-11-16T03:00:31.619Z,97760.66
2022-11-16T03:03:10.053Z,97761.30
2022-11-16T03:05:45.295Z,97762.95
2022-11-16T03:08:23.682Z,97764.43
2022-11-16T03:11:17.478Z,97761.52
2022-11-16T03:13:49.962Z,97759.77
2022-11-16T03:16:27.567Z,97761.27
2022-11-16T03:19:01.474Z,97757.04
2022-11-16T03:21:38.615Z,97753.42
2022-11-16T03:24:11.564Z,97752.55
2022-11-16T03:26:55.933Z,97754.60
2022-11-16T03:29:31.670Z,97750.89
2022-11-16T03:32:12.888Z,97753.02
2022-11-16T03:34:49.533Z,97751.90
2022-11-16T03:37:23.083Z,97750.04
2022-11-16T03:39:56.357Z,97742.85
2022-11-16T03:42:29.399Z,97738.77
2022-11-16T03:45:01.685Z,97737.06
2022-11-16T03:47:33.990Z,97729.16
2022-11-16T03:50:06.731Z,97728.70
2022-11-16T03:52:38.965Z,97722.67
2022-11-16T03:55:11.674Z,97718.92
2022-11-16T03:57:43.217Z,97718.51
2022-11-16T04:00:15.784Z,97714.97
2022-11-16T04:02:47.297Z,97712.69
2022-11-16T04:05:36.923Z,97706.21
2022-11-16T04:08:30.571Z,97700.59
2022-11-16T04:11:19.771Z,97696.86
2022-11-16T04:14:10.172Z,97697.63
2022-11-16T04:16:59.109Z,97692.36
2022-11-16T04:19:57.932Z,97690.84
2022-11-16T04:22:51.735Z,97690.52
2022-11-16T04:25:28.351Z,97687.66
2022-11-16T04:28:16.670Z,97684.67
2022-11-16T04:31:08.785Z,97678.92
2022-11-16T04:33:58.719Z,97679.46
2022-11-16T04:36:48.114Z,97671.26
2022-11-16T04:39:19.609Z,97677.31
2022-11-16T04:42:08.994Z,97674.52
2022-11-16T04:45:09.839Z,97672.66
2022-11-16T04:47:41.336Z,97670.01
2022-11-16T04:50:13.430Z,97669.21
2022-11-16T04:52:44.962Z,97665.02
2022-11-16T04:55:16.541Z,97661.43
2022-11-16T04:57:48.050Z,97662.08
2022-11-16T05:00:20.970Z,97657.33
2022-11-16T05:02:56.853Z,97654.36
2022-11-16T05:05:31.601Z,97641.67
2022-11-16T05:08:03.286Z,97641.08
2022-11-16T05:10:35.033Z,97640.45
2022-11-16T05:13:06.557Z,97641.00
2022-11-16T05:15:38.082Z,97636.44
2022-11-16T05:18:09.674Z,97632.69
2022-11-16T05:20:59.069Z,97636.23
2022-11-16T05:23:48.326Z,97637.74
2022-11-16T05:26:19.824Z,97635.08
2022-11-16T05:28:51.343Z,97637.48
2022-11-16T05:31:22.949Z,97637.48
2022-11-16T05:33:54.575Z,97638.83
2022-11-16T05:36:26.148Z,97635.61
2022-11-16T05:38:57.699Z,97634.47
2022-11-16T05:41:29.265Z,97631.32
2022-11-16T05:44:00.861Z,97631.11
2022-11-16T05:46:32.525Z,97626.23
2022-11-16T05:49:04.140Z,97623.98
2022-11-16T05:51:35.796Z,97625.45
2022-11-16T05:54:08.303Z,97623.69
2022-11-16T05:56:39.945Z,97621.40
2022-11-16T05:59:16.450Z,97622.09
2022-11-16T06:01:49.081Z,97621.91
2022-11-16T06:04:24.817Z,97623.80
2022-11-16T06:06:56.749Z,97622.70
2022-11-16T06:09:28.377Z,97621.77
2022-11-16T06:12:00.046Z,97621.48
2022-11-16T06:14:31.590Z,97622.98
2022-11-16T06:17:03.105Z,97617.70
2022-11-16T06:19:35.606Z,97620.90
2022-11-16T06:22:07.131Z,97618.95
2022-11-16T06:24:38.762Z,97618.98
2022-11-16T06:27:10.334Z,97620.30
2022-11-16T06:29:41.853Z,97614.51
2022-11-16T06:32:14.693Z,97616.74
2022-11-16T06:34:46.225Z,97618.92
2022-11-16T06:37:18.896Z,97615.70
2022-11-16T06:39:50.390Z,97622.09
2022-11-16T06:42:22.134Z,97621.42
2022-11-16T06:44:53.825Z,97619.16
2022-11-16T06:47:25.371Z,97619.83
2022-11-16T06:49:56.885Z,97615.35
2022-11-16T06:52:28.553Z,97618.36
2022-11-16T06:55:00.074Z,97615.06
2022-11-16T06:57:31.642Z,97612.95
2022-11-16T07:00:03.843Z,97608.34
2022-11-16T07:02:37.166Z,97609.27
2022-11-16T07:05:10.332Z,97613.46
2022-11-16T07:07:41.834Z,97609.23
2022-11-16T07:10:14.342Z,97605.99
2022-11-16T07:12:45.867Z,97602.95
2022-11-16T07:15:17.783Z,97602.24
2022-11-16T07:17:49.359Z,97599.26
2022-11-16T07:20:21.186Z,97597.85
2022-11-16T07:22:52.855Z,97598.49
2022-11-16T07:25:24.345Z,97596.83
2022-11-16T07:27:55.970Z,97599.29
2022-11-16T07:30:27.746Z,97598.00
2022-11-16T07:33:02.629Z,97595.99
2022-11-16T07:35:34.149Z,97593.70
2022-11-16T07:38:05.673Z,97593.83
2022-11-16T07:40:37.403Z,97594.63
2022-11-16T07:43:08.909Z,97591.92
2022-11-16T07:45:40.499Z,97597.13
2022-11-16T07:48:12.034Z,97588.70
2022-11-16T07:50:43.549Z,97586.30
2022-11-16T07:53:15.410Z,97581.41
2022-11-16T07:55:52.207Z,97575.17
2022-11-16T07:58:24.160Z,97574.89
2022-11-16T08:00:55.728Z,97575.69
2022-11-16T08:03:27.238Z,97579.27
2022-11-16T08:06:03.804Z,97583.74
2022-11-16T08:08:35.770Z,97578.10
2022-11-16T08:11:09.810Z,97579.00
2022-11-16T08:13:42.522Z,97575.02
2022-11-16T08:16:16.501Z,97569.64
2022-11-16T08:18:49.605Z,97575.89
2022-11-16T08:21:21.680Z,97574.45
2022-11-16T08:23:58.125Z,97572.82
2022-11-16T08:26:30.371Z,97566.75
2022-11-16T08:29:01.930Z,97563.42
2022-11-16T08:31:33.578Z,97558.95
2022-11-16T08:34:05.234Z,97553.85
2022-11-16T08:36:37.288Z,97551.34
2022-11-16T08:39:08.887Z,97552.32
2022-11-16T08:41:42.212Z,97560.06
2022-11-16T08:44:15.481Z,97562.73
2022-11-16T08:46:46.987Z,97561.23
2022-11-16T08:49:18.524Z,97554.23
2022-11-16T08:51:50.170Z,97560.52
2022-11-16T08:54:22.227Z,97564.08
2022-11-16T08:56:53.986Z,97566.17
2022-11-16T08:59:25.602Z,97562.06
2022-11-16T09:01:57.181Z,97565.97
2022-11-16T09:04:32.718Z,97563.77
2022-11-16T09:07:07.423Z,97561.03
2022-11-16T09:09:39.042Z,97565.23
2022-11-16T09:12:10.699Z,97564.35
2022-11-16T09:14:42.422Z,97563.23
2022-11-16T09:17:16.554Z,97555.86
2022-11-16T09:19:51.781Z,97554.05
2022-11-16T09:22:23.443Z,97550.50
2022-11-16T09:24:54.945Z,97548.28
2022-11-16T09:27:26.510Z,97554.74
2022-11-16T09:29:58.269Z,97559.75
2022-11-16T09:32:29.810Z,97555.55
2022-11-16T09:35:01.692Z,97554.23
2022-11-16T09:37:33.233Z,97547.63
2022-11-16T09:40:05.320Z,97547.35
2022-11-16T09:42:45.922Z,97543.02
2022-11-16T09:45:25.999Z,97540.70
2022-11-16T09:48:02.414Z,97534.86
2022-11-16T09:50:41.045Z,97531.40
2022-11-16T09:53:25.983Z,97526.92
2022-11-16T09:56:00.771Z,97523.52
2022-11-16T09:58:39.037Z,97523.23
2022-11-16T10:01:23.633Z,97520.55
2022-11-16T10:04:00.086Z,97519.02
2022-11-16T10:06:42.861Z,97517.80
2022-11-16T10:09:14.920Z,97518.73
2022-11-16T10:12:06.604Z,97519.27
2022-11-16T10:15:04.808Z,97516.30
2022-11-16T10:17:48.620Z,97513.21
2022-11-16T10:20:44.913Z,97510.30
2022-11-16T10:23:26.209Z,97510.95
2022-11-16T10:26:05.693Z,97516.29
2022-11-16T10:29:05.666Z,97515.75
2022-11-16T10:31:56.307Z,97512.05
2022-11-16T10:34:32.943Z,97509.70
2022-11-16T10:37:08.575Z,97506.63
2022-11-16T10:39:41.260Z,97503.65
2022-11-16T10:42:19.184Z,97499.69
2022-11-16T10:44:58.373Z,97495.36
2022-11-16T10:47:38.569Z,97497.13
2022-11-16T10:50:27.111Z,97493.91
2022-11-16T10:52:58.795Z,97495.38
2022-11-16T10:55:30.553Z,97494.13
2022-11-16T10:58:04.544Z,97489.08
2022-11-16T11:00:46.143Z,97489.39
2022-11-16T11:03:30.212Z,97489.31
2022-11-16T11:06:00.381Z,97485.05
2022-11-16T11:08:34.270Z,97485.63
2022-11-16T11:11:21.507Z,97484.33
2022-11-16T11:14:11.274Z,97482.56
2022-11-16T11:16:43.548Z,97481.30
2022-11-16T11:19:27.416Z,97478.21
2022-11-16T11:22:02.667Z,97479.42
2022-11-16T11:24:44.437Z,97477.76
2022-11-16T11:27:22.361Z,97483.14
2022-11-16T11:29:58.701Z,97483.75
2022-11-16T11:32:35.865Z,97484.03
2022-11-16T11:35:22.954Z,97483.37
2022-11-16T11:37:57.517Z,97484.13
2022-11-16T11:40:30.617Z,97484.88
2022-11-16T11:43:03.518Z,97481.91
2022-11-16T11:45:46.183Z,97484.48
2022-11-16T11:48:31.402Z,97485.61
2022-11-16T11:51:12.275Z,97488.15
2022-11-16T11:53:52.758Z,97483.79
2022-11-16T11:56:25.855Z,97480.96
2022-11-16T11:58:58.249Z,97480.70
2022-11-16T12:01:51.288Z,97476.61
2022-11-16T12:05:02.662Z,97474.49
2022-11-16T12:07:52.762Z,97476.13
2022-11-16T12:10:36.037Z,97475.48
2022-11-16T12:13:27.914Z,97469.52
2022-11-16T12:16:10.461Z,97466.98
2022-11-16T12:18:57.034Z,97468.69
2022-11-16T12:21:42.234Z,97469.77
2022-11-16T12:24:25.347Z,97465.61
2022-11-16T12:27:10.731Z,97464.38
2022-11-16T12:29:54.438Z,97457.58
2022-11-16T12:32:40.871Z,97453.09
2022-11-16T12:35:29.493Z,97451.38
2022-11-16T12:38:12.056Z,97453.18
2022-11-16T12:41:01.395Z,97450.29
2022-11-16T12:43:44.197Z,97448.64
2022-11-16T12:46:24.476Z,97448.83
2022-11-16T12:49:27.314Z,97445.70
2022-11-16T12:52:11.274Z,97440.99
2022-11-16T12:55:23.999Z,97442.12
2022-11-16T12:57:59.579Z,97437.00
2022-11-16T13:00:39.584Z,97437.02
2022-11-16T13:03:20.109Z,97432.75
2022-11-16T13:05:58.287Z,97433.70
2022-11-16T13:08:49.507Z,97434.59
2022-11-16T13:11:24.543Z,97438.91
2022-11-16T13:14:01.033Z,97440.92
2022-11-16T13:16:33.496Z,97440.34
2022-11-16T13:19:08.453Z,97437.67
2022-11-16T13:21:47.648Z,97438.83
2022-11-16T13:24:39.957Z,97440.17
2022-11-16T13:27:27.351Z,97439.80
2022-11-16T13:30:06.632Z,97436.98
2022-11-16T13:32:50.470Z,97435.73
2022-11-16T13:35:23.136Z,97436.61
2022-11-16T13:37:54.789Z,97437.31
2022-11-16T13:40:29.165Z,97436.10
2022-11-16T13:43:16.866Z,97441.26
2022-11-16T13:45:57.083Z,97439.35
2022-11-16T13:48:34.486Z,97439.06
2022-11-16T13:51:09.794Z,97436.23
2022-11-16T13:56:52.504Z,97432.45
2022-11-16T13:59:29.940Z,97433.85
2022-11-16T14:02:04.084Z,97429.80
2022-11-16T14:04:57.483Z,97423.73
2022-11-16T14:07:44.921Z,97421.66
2022-11-16T14:10:53.798Z,97427.33
2022-11-16T14:13:44.202Z,97423.81
2022-11-16T14:16:43.235Z,97426.13
2022-11-16T14:19:47.556Z,97422.88
2022-11-16T14:22:34.816Z,97421.11
2022-11-16T14:25:17.336Z,97420.55
2022-11-16T14:27:56.573Z,97420.02
2022-11-16T14:30:32.304Z,97421.27
2022-11-16T14:33:04.211Z,97420.55
2022-11-16T14:35:38.066Z,97419.41
2022-11-16T14:38:21.779Z,97415.77
2022-11-16T14:40:59.443Z,97415.96
2022-11-16T14:43:37.017Z,97410.10
2022-11-16T14:46:15.823Z,97407.49
2022-11-16T14:48:48.484Z,97410.71
2022-11-16T14:51:25.713Z,97409.59
2022-11-16T14:54:01.929Z,97409.88
2022-11-16T14:56:33.493Z,97412.73
2022-11-16T14:59:05.463Z,97407.61
2022-11-16T15:01:40.406Z,97407.13
2022-11-16T15:04:13.260Z,97406.45
2022-11-16T15:06:49.065Z,97404.30
2022-11-16T15:09:27.229Z,97403.08
2022-11-16T15:12:17.982Z,97398.58
2022-11-16T15:14:53.713Z,97402.74
2022-11-16T15:17:31.759Z,97402.70
2022-11-16T15:20:16.026Z,97404.89
2022-11-16T15:22:51.850Z,97407.70
2022-11-16T15:25:29.322Z,97411.35
2022-11-16T15:28:03.617Z,97408.19
2022-11-16T15:30:37.510Z,97405.36
2022-11-16T15:33:17.572Z,97408.30
2022-11-16T15:35:49.361Z,97406.16
2022-11-16T15:38:24.246Z,97407.35
2022-11-16T15:40:58.582Z,97406.39
2022-11-16T15:43:35.847Z,97404.44
2022-11-16T15:46:10.702Z,97405.70
2022-11-16T15:48:43.035Z,97410.66
2022-11-16T15:51:20.072Z,97411.48
2022-11-16T15:53:53.191Z,97411.63
2022-11-16T15:56:33.755Z,97410.44
2022-11-16T15:59:13.824Z,97416.64
2022-11-16T16:01:46.395Z,97421.79
2022-11-16T16:04:20.493Z,97421.86
2022-11-16T16:06:54.652Z,97425.91
2022-11-16T16:09:29.585Z,97427.87
2022-11-16T16:12:19.500Z,97432.98
2022-11-16T16:14:53.433Z,97431.46
2022-11-16T16:17:27.369Z,97438.20
2022-11-16T16:20:01.332Z,97437.29
2022-11-16T16:22:35.145Z,97437.84
2022-11-16T16:25:26.988Z,97440.41
2022-11-16T16:27:58.864Z,97438.64
2022-11-16T16:30:33.091Z,97441.28
2022-11-16T16:33:04.782Z,97439.75
2022-11-16T16:35:36.444Z,97440.50
2022-11-16T16:38:15.334Z,97436.86
2022-11-16T16:40:46.920Z,97437.30
2022-11-16T16:43:18.487Z,97435.13
2022-11-16T16:45:50.510Z,97435.39
2022-11-16T16:48:22.037Z,97432.33
2022-11-16T16:50:53.540Z,97430.20
2022-11-16T16:53:25.396Z,97433.42
2022-11-16T16:55:57.045Z,97427.69
2022-11-16T16:58:28.557Z,97433.21
2022-11-16T17:01:04.600Z,97434.36
2022-11-16T17:03:36.460Z,97431.42
2022-11-16T17:06:08.947Z,97430.77
2022-11-16T17:08:40.838Z,97434.33
2022-11-16T17:11:12.425Z,97436.46
2022-11-16T17:13:44.423Z,97437.70
2022-11-16T17:16:16.784Z,97436.95
2022-11-16T17:18:48.628Z,97431.98
2022-11-16T17:21:20.218Z,97432.42
2022-11-16T17:23:51.826Z,97435.90
2022-11-16T17:26:24.841Z,97437.25
2022-11-16T17:28:58.475Z,97439.56
2022-11-16T17:31:28.990Z,97438.42
2022-11-16T17:34:00.589Z,97437.65
2022-11-16T17:36:32.203Z,97439.58
2022-11-16T17:39:04.003Z,97442.22
2022-11-16T17:41:35.551Z,97439.77
2022-11-16T17:44:08.647Z,97434.40
2022-11-16T17:46:47.108Z,97438.41
2022-11-16T17:49:18.666Z,97436.91
2022-11-16T17:51:50.209Z,97440.16
2022-11-16T17:54:21.778Z,97436.73
2022-11-16T17:56:53.310Z,97437.41
2022-11-16T17:59:29.397Z,97438.36
2022-11-16T18:02:02.203Z,97442.77
2022-11-16T18:04:33.788Z,97443.37
2022-11-16T18:07:05.478Z,97441.41
2022-11-16T18:09:37.186Z,97442.20
2022-11-16T18:12:09.069Z,97443.73
2022-11-16T18:14:42.376Z,97446.88
2022-11-16T18:17:12.630Z,97446.45
2022-11-16T18:19:44.733Z,97448.15
2022-11-16T18:22:16.246Z,97452.47
2022-11-16T18:24:47.758Z,97452.05
2022-11-16T18:27:19.345Z,97451.83
2022-11-16T18:29:50.847Z,97456.14
2022-11-16T18:32:22.375Z,97456.73
2022-11-16T18:34:54.179Z,97457.61
2022-11-16T18:37:25.934Z,97461.17
2022-11-16T18:39:57.498Z,97455.70
2022-11-16T18:42:29.047Z,97456.27
2022-11-16T18:45:00.555Z,97455.38
2022-11-16T18:47:32.079Z,97450.88
2022-11-16T18:50:03.673Z,97444.67
2022-11-16T18:52:35.208Z,97449.23
2022-11-16T18:55:09.132Z,97449.72
2022-11-16T18:57:40.611Z,97449.61
2022-11-16T19:00:16.122Z,97455.73
2022-11-16T19:02:47.632Z,97459.14
2022-11-16T19:05:19.165Z,97465.81
2022-11-16T19:07:50.699Z,97463.19
2022-11-16T19:10:22.177Z,97463.36
2022-11-16T19:12:53.679Z,97459.10
2022-11-16T19:15:26.406Z,97454.52
2022-11-16T19:18:19.895Z,97455.30
2022-11-16T19:20:49.402Z,97451.90
2022-11-16T19:23:20.919Z,97456.70
2022-11-16T19:26:04.896Z,97462.59
2022-11-16T19:28:37.840Z,97440.54
2022-11-16T19:31:14.474Z,97463.29
2022-11-16T19:33:46.625Z,97458.42
2022-11-16T19:36:19.858Z,97463.38
2022-11-16T19:38:51.773Z,97460.96
2022-11-16T19:41:24.629Z,97461.06
2022-11-16T19:43:59.673Z,97463.28
2022-11-16T19:46:33.188Z,97466.13
2022-11-16T19:49:05.460Z,97467.75
2022-11-16T19:51:38.418Z,97472.38
2022-11-16T19:54:13.850Z,97467.27
2022-11-16T19:56:49.308Z,97472.98
2022-11-16T19:59:23.554Z,97471.55
2022-11-16T20:01:55.077Z,97471.80
2022-11-16T20:04:32.042Z,97467.80
2022-11-16T20:07:05.577Z,97465.20
2022-11-16T20:09:36.042Z,97469.29
2022-11-16T20:12:08.150Z,97469.79
2022-11-16T20:14:42.370Z,97467.39
2022-11-16T20:17:14.125Z,97470.99
2022-11-16T20:19:49.775Z,97475.35
2022-11-16T20:22:21.282Z,97481.39
2022-11-16T20:24:54.770Z,97481.94
2022-11-16T20:27:32.320Z,97478.70
2022-11-16T20:30:09.347Z,97477.52
2022-11-16T20:32:41.359Z,97477.09
2022-11-16T20:35:18.824Z,97475.48
2022-11-16T20:37:50.789Z,97474.07
2022-11-16T20:40:22.477Z,97475.27
2022-11-16T20:42:59.050Z,97475.80
2022-11-16T20:45:33.011Z,97474.81
2022-11-16T20:48:05.296Z,97474.39
2022-11-16T20:50:36.853Z,97474.58
2022-11-16T20:53:08.363Z,97478.73
2022-11-16T20:55:39.871Z,97474.71
2022-11-16T20:58:11.416Z,97476.69
2022-11-16T21:00:43.096Z,97478.32
2022-11-16T21:03:14.766Z,97474.98
2022-11-16T21:05:50.722Z,97471.89
2022-11-16T21:08:22.478Z,97472.89
2022-11-16T21:10:54.653Z,97472.87
2022-11-16T21:13:44.026Z,97476.02
2022-11-16T21:16:17.461Z,97483.98
2022-11-16T21:18:48.974Z,97481.63
2022-11-16T21:21:20.473Z,97474.02
2022-11-16T21:23:53.254Z,97471.62
2022-11-16T21:26:26.448Z,97466.40
2022-11-16T21:28:58.894Z,97462.83
2022-11-16T21:31:32.167Z,97461.40
2022-11-16T21:34:03.724Z,97458.04
2022-11-16T21:36:36.101Z,97459.24
2022-11-16T21:39:08.116Z,97464.11
2022-11-16T21:41:39.646Z,97461.34
2022-11-16T21:44:11.147Z,97459.83
2022-11-16T21:46:42.677Z,97460.28
2022-11-16T21:49:14.215Z,97461.80
2022-11-16T21:51:45.702Z,97453.33
2022-11-16T21:54:17.197Z,97451.46
2022-11-16T21:56:48.910Z,97458.23
2022-11-16T21:59:20.565Z,97462.41
2022-11-16T22:02:01.486Z,97464.61
2022-11-16T22:04:50.804Z,97469.19
2022-11-16T22:07:36.928Z,97471.52
2022-11-16T22:10:11.159Z,97471.48
2022-11-16T22:12:42.789Z,97473.20
2022-11-16T22:15:14.889Z,97475.38
2022-11-16T22:17:46.856Z,97473.48
2022-11-16T22:20:19.637Z,97467.49
2022-11-16T22:22:51.356Z,97472.27
2022-11-16T22:25:22.999Z,97471.98
2022-11-16T22:30:51.459Z,97476.96
2022-11-16T22:33:23.767Z,97481.26
2022-11-16T22:35:55.629Z,97481.34
2022-11-16T22:38:27.617Z,97480.39
2022-11-16T22:40:59.700Z,97480.48
2022-11-16T22:43:32.602Z,97481.60
2022-11-16T22:46:05.815Z,97485.48
2022-11-16T22:48:39.538Z,97489.05
2022-11-16T22:51:18.875Z,97483.53
2022-11-16T22:53:53.336Z,97485.58
2022-11-16T22:56:25.416Z,97485.80
2022-11-16T22:58:57.425Z,97481.45
2022-11-16T23:01:29.511Z,97475.48
2022-11-16T23:04:01.362Z,97470.64
2022-11-16T23:06:33.286Z,97471.67
2022-11-16T23:09:04.998Z,97467.19
2022-11-16T23:11:54.422Z,97467.91
2022-11-16T23:14:43.897Z,97471.20
2022-11-16T23:17:15.673Z,97469.38
2022-11-16T23:20:17.659Z,97467.98
2022-11-16T23:23:07.696Z,97471.08
2022-11-16T23:25:57.215Z,97469.20
2022-11-16T23:28:28.827Z,97466.23
2022-11-16T23:31:00.426Z,97462.36
2022-11-16T23:33:44.981Z,97459.54
2022-11-16T23:36:16.806Z,97454.66
2022-11-16T23:38:48.374Z,97452.66
2022-11-16T23:41:37.965Z,97459.39
2022-11-16T23:44:09.723Z,97459.41
2022-11-16T23:46:41.452Z,97460.38
2022-11-16T23:49:13.146Z,97461.33
2022-11-16T23:51:44.808Z,97460.40
2022-11-16T23:54:16.447Z,97455.70
2022-11-16T23:56:48.106Z,97452.98
2022-11-16T23:59:19.739Z,97452.36
